createdAt,value
2022-12-17T00:01:18.852Z,-5.19
2022-12-17T00:04:04.198Z,-5.03
2022-12-17T00:06:49.848Z,-5.06
2022-12-17T00:09:35.467Z,-5.08
2022-12-17T00:12:20.237Z,-5.15
2022-12-17T00:15:05.034Z,-5.14
2022-12-17T00:17:49.780Z,-5.14
2022-12-17T00:20:34.501Z,-5.13
2022-12-17T00:23:21.116Z,-5.13
2022-12-17T00:26:11.267Z,-5.11
2022-12-17T00:28:57.055Z,-5.12
2022-12-17T00:31:45.177Z,-5.14
2022-12-17T00:34:30.508Z,-5.09
2022-12-17T00:37:15.715Z,-5.05
2022-12-17T00:40:00.318Z,-4.96
2022-12-17T00:42:45.404Z,-4.97
2022-12-17T00:45:31.402Z,-4.96
2022-12-17T00:48:16.635Z,-4.90
2022-12-17T00:51:01.322Z,-4.96
2022-12-17T00:53:45.982Z,-4.97
2022-12-17T00:56:30.796Z,-5.09
2022-12-17T00:59:16.086Z,-5.03
2022-12-17T01:02:00.996Z,-5.07
2022-12-17T01:04:46.069Z,-5.09
2022-12-17T01:07:31.187Z,-5.11
2022-12-17T01:10:15.962Z,-5.07
2022-12-17T01:13:00.749Z,-5.01
2022-12-17T01:15:45.526Z,-5.09
2022-12-17T01:18:36.772Z,-5.06
2022-12-17T01:21:21.923Z,-5.13
2022-12-17T01:24:06.686Z,-5.08
2022-12-17T01:26:51.819Z,-5.16
2022-12-17T01:29:36.674Z,-5.12
2022-12-17T01:32:21.996Z,-5.07
2022-12-17T01:35:06.890Z,-5.31
2022-12-17T01:37:51.729Z,-5.25
2022-12-17T01:40:36.481Z,-5.29
2022-12-17T01:43:21.808Z,-5.25
2022-12-17T01:46:08.166Z,-5.28
2022-12-17T01:49:01.042Z,-5.33
2022-12-17T01:51:48.285Z,-5.30
2022-12-17T01:54:34.144Z,-5.25
2022-12-17T01:57:20.451Z,-5.24
2022-12-17T02:00:20.057Z,-5.15
2022-12-17T02:03:04.772Z,-5.14
2022-12-17T02:05:57.513Z,-5.08
2022-12-17T02:09:16.270Z,-5.12
2022-12-17T02:12:07.922Z,-5.17
2022-12-17T02:15:19.659Z,-5.18
2022-12-17T02:18:15.045Z,-5.25
2022-12-17T02:21:06.877Z,-5.28
2022-12-17T02:24:14.252Z,-5.21
2022-12-17T02:27:05.571Z,-5.30
2022-12-17T02:30:04.494Z,-5.32
2022-12-17T02:32:52.674Z,-5.39
2022-12-17T02:35:43.609Z,-5.39
2022-12-17T02:38:41.381Z,-5.53
2022-12-17T02:41:32.845Z,-5.53
2022-12-17T02:44:18.983Z,-5.48
2022-12-17T02:47:05.179Z,-5.31
2022-12-17T02:49:50.815Z,-5.43
2022-12-17T02:52:39.792Z,-5.38
2022-12-17T02:55:25.562Z,-5.50
2022-12-17T02:58:10.597Z,-5.31
2022-12-17T03:00:55.995Z,-5.47
2022-12-17T03:03:43.875Z,-5.36
2022-12-17T03:06:32.494Z,-5.36
2022-12-17T03:09:17.448Z,-5.63
2022-12-17T03:12:02.201Z,-5.74
2022-12-17T03:14:47.111Z,-5.76
2022-12-17T03:17:31.750Z,-5.65
2022-12-17T03:20:16.833Z,-5.58
2022-12-17T03:23:01.562Z,-5.74
2022-12-17T03:25:46.390Z,-5.93
2022-12-17T03:28:31.053Z,-5.88
2022-12-17T03:31:17.156Z,-5.94
2022-12-17T03:34:02.013Z,-5.94
2022-12-17T03:36:47.294Z,-5.98
2022-12-17T03:39:32.323Z,-5.98
2022-12-17T03:42:17.474Z,-5.93
2022-12-17T03:45:02.530Z,-5.97
2022-12-17T03:47:50.570Z,-5.93
2022-12-17T03:50:35.349Z,-6.01
2022-12-17T03:53:22.885Z,-6.13
2022-12-17T03:56:07.683Z,-6.12
2022-12-17T03:58:52.457Z,-6.09
2022-12-17T04:01:37.244Z,-6.13
2022-12-17T04:04:23.278Z,-6.10
2022-12-17T04:07:08.691Z,-5.93
2022-12-17T04:09:53.358Z,-5.96
2022-12-17T04:12:37.993Z,-6.19
2022-12-17T04:15:24.008Z,-6.26
2022-12-17T04:18:08.814Z,-6.17
2022-12-17T04:20:53.564Z,-6.29
2022-12-17T04:23:38.841Z,-6.27
2022-12-17T04:26:23.843Z,-6.24
2022-12-17T04:29:08.612Z,-6.23
2022-12-17T04:31:54.476Z,-6.36
2022-12-17T04:34:39.112Z,-6.35
2022-12-17T04:37:23.830Z,-6.29
2022-12-17T04:40:08.812Z,-6.27
2022-12-17T04:42:53.598Z,-6.26
2022-12-17T04:45:38.447Z,-6.27
2022-12-17T04:48:26.189Z,-6.16
2022-12-17T04:51:11.259Z,-6.25
2022-12-17T04:53:56.265Z,-6.26
2022-12-17T04:56:41.750Z,-6.24
2022-12-17T04:59:26.946Z,-6.27
2022-12-17T05:02:11.624Z,-6.35
2022-12-17T05:04:56.646Z,-6.24
2022-12-17T05:07:41.555Z,-6.16
2022-12-17T05:10:27.103Z,-6.18
2022-12-17T05:13:19.281Z,-6.06
2022-12-17T05:16:05.079Z,-6.09
2022-12-17T05:18:52.194Z,-6.25
2022-12-17T05:21:37.299Z,-6.19
2022-12-17T05:24:22.223Z,-6.13
2022-12-17T05:27:07.060Z,-6.06
2022-12-17T05:29:51.868Z,-5.94
2022-12-17T05:32:36.705Z,-5.99
2022-12-17T05:35:21.755Z,-5.95
2022-12-17T05:38:06.434Z,-6.01
2022-12-17T05:40:52.208Z,-6.00
2022-12-17T05:43:37.347Z,-6.00
2022-12-17T05:46:24.434Z,-5.93
2022-12-17T05:49:09.072Z,-5.91
2022-12-17T05:51:53.942Z,-5.91
2022-12-17T05:54:39.064Z,-6.08
2022-12-17T05:57:23.721Z,-6.15
2022-12-17T06:00:08.597Z,-6.10
2022-12-17T06:02:53.420Z,-6.09
2022-12-17T06:05:38.485Z,-6.08
2022-12-17T06:08:27.356Z,-6.04
2022-12-17T06:11:13.022Z,-6.02
2022-12-17T06:13:57.828Z,-6.05
2022-12-17T06:16:53.106Z,-6.02
2022-12-17T06:19:37.878Z,-6.05
2022-12-17T06:22:22.727Z,-6.01
2022-12-17T06:25:11.992Z,-5.96
2022-12-17T06:27:56.770Z,-5.91
2022-12-17T06:30:41.555Z,-6.03
2022-12-17T06:33:29.506Z,-5.99
2022-12-17T06:36:22.222Z,-6.08
2022-12-17T06:39:07.810Z,-6.17
2022-12-17T06:41:52.829Z,-6.23
2022-12-17T06:44:45.276Z,-6.20
2022-12-17T06:47:30.094Z,-6.29
2022-12-17T06:50:15.021Z,-6.27
2022-12-17T06:52:59.753Z,-6.26
2022-12-17T06:55:44.601Z,-6.17
2022-12-17T06:58:29.525Z,-6.08
2022-12-17T07:01:14.631Z,-6.30
2022-12-17T07:03:59.604Z,-6.43
2022-12-17T07:06:44.540Z,-6.37
2022-12-17T07:09:29.328Z,-6.47
2022-12-17T07:12:14.420Z,-6.43
2022-12-17T07:14:59.201Z,-6.47
2022-12-17T07:17:44.006Z,-6.47
2022-12-17T07:20:29.750Z,-6.41
2022-12-17T07:23:15.309Z,-6.52
2022-12-17T07:26:01.223Z,-6.54
2022-12-17T07:28:45.991Z,-6.54
2022-12-17T07:31:30.776Z,-6.47
2022-12-17T07:34:15.598Z,-6.57
2022-12-17T07:37:00.379Z,-6.67
2022-12-17T07:39:45.592Z,-6.65
2022-12-17T07:42:50.230Z,-6.63
2022-12-17T07:45:35.296Z,-6.70
2022-12-17T07:48:20.006Z,-6.69
2022-12-17T07:51:09.089Z,-6.65
2022-12-17T07:53:54.350Z,-6.65
2022-12-17T07:56:39.948Z,-6.55
2022-12-17T07:59:24.893Z,-6.63
2022-12-17T08:02:09.759Z,-6.75
2022-12-17T08:05:06.017Z,-6.67
2022-12-17T08:07:50.867Z,-6.39
2022-12-17T08:10:36.257Z,-6.35
2022-12-17T08:13:23.011Z,-6.34
2022-12-17T08:16:10.794Z,-6.32
2022-12-17T08:18:55.700Z,-6.41
2022-12-17T08:21:40.445Z,-6.36
2022-12-17T08:24:25.526Z,-6.39
2022-12-17T08:27:10.740Z,-6.25
2022-12-17T08:29:55.469Z,-6.34
2022-12-17T08:32:41.170Z,-6.31
2022-12-17T08:35:26.749Z,-6.32
2022-12-17T08:38:11.590Z,-6.24
2022-12-17T08:40:56.501Z,-6.15
2022-12-17T08:43:41.317Z,-6.12
2022-12-17T08:46:26.394Z,-6.12
2022-12-17T08:49:11.508Z,-6.14
2022-12-17T08:51:56.093Z,-5.98
2022-12-17T08:54:40.951Z,-5.82
2022-12-17T08:57:32.473Z,-5.75
2022-12-17T09:00:18.159Z,-5.65
2022-12-17T09:03:03.565Z,-5.70
2022-12-17T09:05:52.976Z,-5.73
2022-12-17T09:08:54.454Z,-5.87
2022-12-17T09:11:39.412Z,-6.03
2022-12-17T09:14:24.468Z,-5.90
2022-12-17T09:17:09.283Z,-6.04
2022-12-17T09:20:04.653Z,-5.87
2022-12-17T09:22:50.141Z,-5.92
2022-12-17T09:25:35.626Z,-5.79
2022-12-17T09:28:27.310Z,-5.87
2022-12-17T09:31:17.767Z,-5.67
2022-12-17T09:34:03.476Z,-5.56
2022-12-17T09:36:51.320Z,-5.77
2022-12-17T09:39:36.998Z,-5.67
2022-12-17T09:42:49.676Z,-5.59
2022-12-17T09:45:38.889Z,-5.46
2022-12-17T09:48:32.092Z,-5.27
2022-12-17T09:51:17.180Z,-5.31
2022-12-17T09:54:07.950Z,-5.31
2022-12-17T09:56:55.081Z,-5.32
2022-12-17T09:59:47.913Z,-5.42
2022-12-17T10:02:51.092Z,-5.56
2022-12-17T10:05:42.969Z,-5.53
2022-12-17T10:08:32.210Z,-5.63
2022-12-17T10:11:34.214Z,-5.72
2022-12-17T10:14:31.239Z,-5.72
2022-12-17T10:17:16.101Z,-5.86
2022-12-17T10:20:01.491Z,-5.86
2022-12-17T10:22:46.683Z,-6.09
2022-12-17T10:25:36.501Z,-6.00
2022-12-17T10:28:29.285Z,-6.00
2022-12-17T10:31:14.504Z,-6.07
2022-12-17T10:34:00.558Z,-5.91
2022-12-17T10:36:47.055Z,-5.82
2022-12-17T10:39:50.705Z,-5.67
2022-12-17T10:42:45.770Z,-5.58
2022-12-17T10:45:53.158Z,-5.63
2022-12-17T10:48:43.488Z,-5.79
2022-12-17T10:51:50.134Z,-5.77
2022-12-17T10:54:49.031Z,-5.80
2022-12-17T10:57:56.763Z,-5.69
2022-12-17T11:00:49.800Z,-5.53
2022-12-17T11:03:49.998Z,-5.77
2022-12-17T11:06:44.691Z,-5.58
2022-12-17T11:09:53.509Z,-5.66
2022-12-17T11:12:44.489Z,-5.58
2022-12-17T11:15:38.730Z,-5.40
2022-12-17T11:18:29.443Z,-5.36
2022-12-17T11:21:25.564Z,-5.42
2022-12-17T11:24:15.431Z,-5.57
2022-12-17T11:27:08.721Z,-5.48
2022-12-17T11:30:00.988Z,-5.25
2022-12-17T11:33:00.027Z,-5.34
2022-12-17T11:35:58.445Z,-5.16
2022-12-17T11:38:57.164Z,-5.13
2022-12-17T11:42:20.022Z,-5.02
2022-12-17T11:45:17.965Z,-4.86
2022-12-17T11:48:16.627Z,-5.20
2022-12-17T11:51:34.213Z,-5.19
2022-12-17T11:55:07.202Z,-5.03
2022-12-17T11:58:14.098Z,-4.91
2022-12-17T12:01:13.559Z,-4.79
2022-12-17T12:04:07.431Z,-4.82
2022-12-17T12:07:02.083Z,-4.92
2022-12-17T12:10:06.207Z,-5.05
2022-12-17T12:13:12.844Z,-5.08
2022-12-17T12:16:09.824Z,-4.93
2022-12-17T12:19:11.662Z,-4.82
2022-12-17T12:22:03.951Z,-4.76
2022-12-17T12:25:06.921Z,-4.64
2022-12-17T12:28:29.754Z,-4.56
2022-12-17T12:31:27.167Z,-4.53
2022-12-17T12:34:21.367Z,-4.40
2022-12-17T12:37:08.907Z,-4.39
2022-12-17T12:40:10.922Z,-4.25
2022-12-17T12:42:59.965Z,-4.22
2022-12-17T12:46:06.291Z,-4.17
2022-12-17T12:49:06.450Z,-4.07
2022-12-17T12:51:56.294Z,-4.04
2022-12-17T12:55:08.274Z,-4.00
2022-12-17T12:57:56.594Z,-3.90
2022-12-17T13:00:42.965Z,-4.00
2022-12-17T13:03:52.900Z,-3.87
2022-12-17T13:06:41.128Z,-4.01
2022-12-17T13:09:20.694Z,-3.98
2022-12-17T13:12:02.481Z,-3.94
2022-12-17T13:14:43.769Z,-3.97
2022-12-17T13:17:16.375Z,-3.93
2022-12-17T13:19:57.981Z,-3.88
2022-12-17T13:22:24.774Z,-3.88
2022-12-17T13:24:54.603Z,-3.95
2022-12-17T13:27:33.113Z,-3.92
2022-12-17T13:30:17.701Z,-3.83
2022-12-17T13:32:49.259Z,-3.84
2022-12-17T13:35:40.767Z,-3.78
2022-12-17T13:38:21.033Z,-3.91
2022-12-17T13:41:22.441Z,-3.89
2022-12-17T13:43:58.263Z,-3.81
2022-12-17T13:46:56.739Z,-3.83
2022-12-17T13:49:25.874Z,-3.82
2022-12-17T13:52:11.787Z,-3.84
2022-12-17T13:54:38.326Z,-3.73
2022-12-17T13:57:15.479Z,-3.88
2022-12-17T13:59:49.487Z,-3.82
2022-12-17T14:02:33.918Z,-3.93
2022-12-17T14:05:07.398Z,-3.83
2022-12-17T14:08:45.003Z,-3.97
2022-12-17T14:11:30.670Z,-3.97
2022-12-17T14:13:57.631Z,-3.99
2022-12-17T14:16:24.105Z,-4.05
2022-12-17T14:18:57.206Z,-4.09
2022-12-17T14:21:26.377Z,-4.05
2022-12-17T14:23:53.364Z,-4.20
2022-12-17T14:26:21.431Z,-4.25
2022-12-17T14:28:51.003Z,-4.31
2022-12-17T14:31:27.998Z,-4.29
2022-12-17T14:34:07.222Z,-4.34
2022-12-17T14:36:40.229Z,-4.37
2022-12-17T14:39:20.991Z,-4.46
2022-12-17T14:42:06.085Z,-4.38
2022-12-17T14:44:33.124Z,-4.52
2022-12-17T14:47:23.467Z,-4.50
2022-12-17T14:50:00.544Z,-4.70
2022-12-17T14:52:40.721Z,-4.80
2022-12-17T14:55:31.368Z,-4.77
2022-12-17T14:58:12.747Z,-4.83
2022-12-17T15:00:46.006Z,-4.84
2022-12-17T15:03:27.860Z,-4.93
2022-12-17T15:06:06.705Z,-5.00
2022-12-17T15:08:46.086Z,-5.03
2022-12-17T15:11:14.921Z,-5.06
2022-12-17T15:13:42.287Z,-5.05
2022-12-17T15:16:08.717Z,-5.17
2022-12-17T15:18:35.808Z,-5.18
2022-12-17T15:21:03.546Z,-5.21
2022-12-17T15:23:30.698Z,-5.22
2022-12-17T15:25:57.187Z,-5.23
2022-12-17T15:28:26.785Z,-5.19
2022-12-17T15:30:53.470Z,-5.15
2022-12-17T15:33:19.873Z,-5.15
2022-12-17T15:35:46.250Z,-5.36
2022-12-17T15:38:12.859Z,-5.24
2022-12-17T15:40:39.733Z,-5.09
2022-12-17T15:43:12.129Z,-5.18
2022-12-17T15:45:38.623Z,-5.24
2022-12-17T15:48:05.379Z,-5.30
2022-12-17T15:50:32.074Z,-5.30
2022-12-17T15:52:58.437Z,-5.28
2022-12-17T15:55:24.775Z,-5.33
2022-12-17T15:57:51.115Z,-5.40
2022-12-17T16:00:18.270Z,-5.38
2022-12-17T16:02:44.822Z,-5.39
2022-12-17T16:05:12.355Z,-5.43
2022-12-17T16:07:38.754Z,-5.38
2022-12-17T16:10:06.717Z,-5.36
2022-12-17T16:12:33.595Z,-5.39
2022-12-17T16:14:59.963Z,-5.51
2022-12-17T16:17:26.565Z,-5.50
2022-12-17T16:19:52.934Z,-5.51
2022-12-17T16:22:19.321Z,-5.53
2022-12-17T16:24:45.952Z,-5.56
2022-12-17T16:27:13.146Z,-5.66
2022-12-17T16:29:39.593Z,-5.72
2022-12-17T16:32:06.430Z,-5.79
2022-12-17T16:34:32.883Z,-5.79
2022-12-17T16:37:01.251Z,-5.81
2022-12-17T16:39:27.924Z,-5.79
2022-12-17T16:41:54.283Z,-5.85
2022-12-17T16:44:20.746Z,-5.83
2022-12-17T16:46:47.168Z,-5.89
2022-12-17T16:49:19.510Z,-5.60
2022-12-17T16:51:48.696Z,-5.69
2022-12-17T16:54:21.036Z,-5.68
2022-12-17T16:56:48.112Z,-5.66
2022-12-17T16:59:16.016Z,-5.72
2022-12-17T17:01:44.907Z,-5.76
2022-12-17T17:04:12.988Z,-5.75
2022-12-17T17:06:41.161Z,-5.78
2022-12-17T17:09:08.320Z,-5.68
2022-12-17T17:11:34.923Z,-5.73
2022-12-17T17:14:01.369Z,-5.71
2022-12-17T17:16:27.961Z,-5.74
2022-12-17T17:18:54.639Z,-5.82
2022-12-17T17:21:29.624Z,-5.81
2022-12-17T17:24:09.920Z,-5.81
2022-12-17T17:26:36.541Z,-5.78
2022-12-17T17:29:03.900Z,-5.76
2022-12-17T17:34:16.764Z,-5.82
2022-12-17T17:36:43.780Z,-5.87
2022-12-17T17:39:10.818Z,-5.80
2022-12-17T17:41:37.307Z,-5.77
2022-12-17T17:44:07.170Z,-5.72
2022-12-17T17:46:34.365Z,-5.73
2022-12-17T17:49:02.679Z,-5.64
2022-12-17T17:52:07.253Z,-5.69
2022-12-17T17:54:18.872Z,-5.76
2022-12-17T17:56:45.229Z,-5.73
2022-12-17T17:59:14.394Z,-5.74
2022-12-17T18:01:43.279Z,-5.69
2022-12-17T18:04:13.024Z,-5.59
2022-12-17T18:06:57.421Z,-5.67
2022-12-17T18:09:27.857Z,-5.59
2022-12-17T18:11:54.261Z,-5.74
2022-12-17T18:14:20.592Z,-5.67
2022-12-17T18:16:48.023Z,-5.73
2022-12-17T18:19:19.949Z,-5.68
2022-12-17T18:21:47.130Z,-5.70
2022-12-17T18:24:16.407Z,-5.70
2022-12-17T18:26:44.397Z,-5.62
2022-12-17T18:29:22.829Z,-5.71
2022-12-17T18:31:52.122Z,-5.84
2022-12-17T18:34:21.376Z,-5.80
2022-12-17T18:36:49.657Z,-5.77
2022-12-17T18:39:21.820Z,-5.84
2022-12-17T18:42:07.977Z,-5.81
2022-12-17T18:44:38.070Z,-5.94
2022-12-17T18:47:04.711Z,-6.04
2022-12-17T18:49:31.220Z,-5.90
2022-12-17T18:51:58.200Z,-5.89
2022-12-17T18:54:27.422Z,-5.94
2022-12-17T18:57:01.620Z,-6.06
2022-12-17T18:59:29.511Z,-6.12
2022-12-17T19:01:56.543Z,-6.05
2022-12-17T19:04:23.518Z,-6.05
2022-12-17T19:06:53.328Z,-6.03
2022-12-17T19:09:26.188Z,-6.12
2022-12-17T19:11:54.220Z,-6.20
2022-12-17T19:14:22.411Z,-6.13
2022-12-17T19:16:50.166Z,-6.24
2022-12-17T19:19:17.277Z,-6.22
2022-12-17T19:21:43.702Z,-6.22
2022-12-17T19:24:13.626Z,-6.14
2022-12-17T19:26:40.509Z,-6.27
2022-12-17T19:29:08.443Z,-6.34
2022-12-17T19:31:35.393Z,-6.32
2022-12-17T19:34:04.865Z,-6.43
2022-12-17T19:36:35.534Z,-6.34
2022-12-17T19:39:05.195Z,-6.36
2022-12-17T19:41:32.774Z,-6.47
2022-12-17T19:44:01.444Z,-6.42
2022-12-17T19:46:29.585Z,-6.45
2022-12-17T19:48:57.299Z,-6.33
2022-12-17T19:51:25.905Z,-6.29
2022-12-17T19:53:52.312Z,-6.30
2022-12-17T19:56:30.503Z,-6.31
2022-12-17T19:59:02.707Z,-6.31
2022-12-17T20:01:31.891Z,-6.36
2022-12-17T20:03:58.896Z,-6.35
2022-12-17T20:06:28.467Z,-6.24
2022-12-17T20:08:55.279Z,-6.16
2022-12-17T20:11:34.082Z,-6.20
2022-12-17T20:14:03.065Z,-6.12
2022-12-17T20:16:31.384Z,-6.18
2022-12-17T20:19:02.218Z,-6.18
2022-12-17T20:21:29.130Z,-6.33
2022-12-17T20:23:55.639Z,-6.17
2022-12-17T20:26:23.617Z,-6.25
2022-12-17T20:28:49.977Z,-6.30
2022-12-17T20:31:17.099Z,-6.30
2022-12-17T20:33:43.838Z,-6.08
2022-12-17T20:36:13.769Z,-6.18
2022-12-17T20:38:41.199Z,-6.15
2022-12-17T20:41:17.500Z,-6.19
2022-12-17T20:43:44.437Z,-6.12
2022-12-17T20:46:11.665Z,-6.16
2022-12-17T20:48:40.099Z,-6.16
2022-12-17T20:51:16.419Z,-6.17
2022-12-17T20:53:44.721Z,-6.23
2022-12-17T20:56:17.651Z,-6.32
2022-12-17T20:58:44.820Z,-6.34
2022-12-17T21:01:12.543Z,-6.24
2022-12-17T21:03:40.177Z,-6.36
2022-12-17T21:06:37.113Z,-6.39
2022-12-17T21:09:04.117Z,-6.27
2022-12-17T21:11:32.601Z,-6.13
2022-12-17T21:14:01.711Z,-6.24
2022-12-17T21:16:31.303Z,-6.34
2022-12-17T21:19:00.095Z,-6.32
2022-12-17T21:21:29.176Z,-6.22
2022-12-17T21:23:56.837Z,-6.31
2022-12-17T21:26:32.031Z,-6.32
2022-12-17T21:29:00.045Z,-6.27
2022-12-17T21:31:28.867Z,-6.27
2022-12-17T21:33:58.714Z,-6.30
2022-12-17T21:36:27.365Z,-6.22
2022-12-17T21:38:54.036Z,-6.20
2022-12-17T21:41:25.751Z,-6.19
2022-12-17T21:43:54.083Z,-6.24
2022-12-17T21:46:20.563Z,-6.34
2022-12-17T21:48:47.254Z,-6.31
2022-12-17T21:51:14.149Z,-6.43
2022-12-17T21:53:43.385Z,-6.41
2022-12-17T21:56:15.798Z,-6.44
2022-12-17T21:58:43.911Z,-6.48
2022-12-17T22:01:22.638Z,-6.48
2022-12-17T22:03:54.107Z,-6.37
2022-12-17T22:06:25.330Z,-6.36
2022-12-17T22:08:58.860Z,-6.35
2022-12-17T22:11:28.025Z,-6.32
2022-12-17T22:14:15.545Z,-6.27
2022-12-17T22:16:48.909Z,-6.28
2022-12-17T22:19:23.463Z,-6.33
2022-12-17T22:21:51.149Z,-6.37
2022-12-17T22:24:24.059Z,-6.38
2022-12-17T22:26:50.540Z,-6.34
2022-12-17T22:29:37.006Z,-6.24
2022-12-17T22:32:22.366Z,-6.25
2022-12-17T22:36:00.068Z,-6.15
2022-12-17T22:41:22.698Z,-6.20
2022-12-17T22:44:03.756Z,-6.16
2022-12-17T22:44:45.636Z,-6.08
2022-12-17T22:46:17.190Z,-6.13
2022-12-17T22:48:43.714Z,-6.17
2022-12-17T22:51:12.721Z,-6.18
2022-12-17T22:53:41.547Z,-6.23
2022-12-17T22:56:19.433Z,-6.30
2022-12-17T22:58:56.073Z,-6.32
2022-12-17T23:01:23.294Z,-6.35
2022-12-17T23:03:53.684Z,-6.35
2022-12-17T23:06:20.721Z,-6.47
2022-12-17T23:08:47.225Z,-6.60
2022-12-17T23:11:19.860Z,-6.51
2022-12-17T23:13:46.291Z,-6.52
2022-12-17T23:16:13.894Z,-6.60
2022-12-17T23:18:41.138Z,-6.60
2022-12-17T23:21:21.111Z,-6.60
2022-12-17T23:23:47.538Z,-6.56
2022-12-17T23:26:23.673Z,-6.62
2022-12-17T23:29:01.820Z,-6.71
2022-12-17T23:31:32.088Z,-6.63
2022-12-17T23:33:58.752Z,-6.63
2022-12-17T23:36:26.261Z,-6.57
2022-12-17T23:38:54.905Z,-6.54
2022-12-17T23:41:25.044Z,-6.58
2022-12-17T23:43:51.549Z,-6.66
2022-12-17T23:46:19.025Z,-6.63
2022-12-17T23:48:46.678Z,-6.59
2022-12-17T23:51:14.805Z,-6.55
2022-12-17T23:53:43.087Z,-6.65
2022-12-17T23:56:12.655Z,-6.48
2022-12-17T23:58:40.710Z,-6.49
